createdAt,value
2022-12-24T00:00:02.339Z,20.13
2022-12-24T00:02:28.740Z,16.42
2022-12-24T00:05:00.609Z,17.38
2022-12-24T00:07:27.689Z,19.02
2022-12-24T00:09:54.093Z,17.35
2022-12-24T00:12:20.464Z,16.95
2022-12-24T00:14:46.960Z,18.05
2022-12-24T00:17:13.552Z,21.63
2022-12-24T00:19:39.980Z,20.50
2022-12-24T00:22:06.310Z,20.63
2022-12-24T00:24:32.665Z,20.58
2022-12-24T00:26:59.089Z,29.88
2022-12-24T00:29:25.573Z,30.00
2022-12-24T00:31:52.057Z,33.38
2022-12-24T00:34:18.488Z,39.25
2022-12-24T00:36:44.908Z,39.78
2022-12-24T00:39:11.293Z,42.05
2022-12-24T00:41:37.675Z,39.90
2022-12-24T00:44:06.694Z,37.55
2022-12-24T00:46:34.349Z,38.17
2022-12-24T00:49:01.482Z,37.17
2022-12-24T00:51:28.490Z,37.03
2022-12-24T00:53:54.968Z,35.88
2022-12-24T00:56:21.572Z,36.25
2022-12-24T00:58:48.443Z,36.20
2022-12-24T01:01:15.419Z,37.92
2022-12-24T01:03:42.073Z,37.40
2022-12-24T01:06:21.198Z,32.97
2022-12-24T01:08:51.314Z,31.77
2022-12-24T01:11:18.118Z,34.00
2022-12-24T01:13:44.493Z,32.03
2022-12-24T01:16:19.745Z,32.65
2022-12-24T01:18:46.564Z,34.25
2022-12-24T01:21:12.939Z,30.38
2022-12-24T01:23:39.363Z,32.45
2022-12-24T01:26:05.853Z,33.33
2022-12-24T01:28:32.926Z,32.42
2022-12-24T01:30:59.513Z,33.13
2022-12-24T01:33:30.310Z,36.72
2022-12-24T01:35:56.758Z,36.10
2022-12-24T01:38:23.161Z,38.03
2022-12-24T01:41:08.306Z,37.22
2022-12-24T01:43:34.820Z,37.75
2022-12-24T01:46:11.933Z,38.10
2022-12-24T01:48:45.286Z,39.35
2022-12-24T01:51:26.839Z,36.40
2022-12-24T01:53:59.910Z,36.88
2022-12-24T01:56:28.788Z,35.88
2022-12-24T01:58:59.741Z,34.65
2022-12-24T02:01:28.601Z,32.38
2022-12-24T02:03:55.042Z,32.92
2022-12-24T02:06:22.414Z,32.90
2022-12-24T02:08:48.888Z,32.92
2022-12-24T02:11:22.040Z,35.33
2022-12-24T02:13:52.423Z,39.45
2022-12-24T02:16:40.441Z,34.92
2022-12-24T02:19:37.851Z,30.40
2022-12-24T02:22:10.223Z,31.35
2022-12-24T02:24:54.526Z,33.33
2022-12-24T02:27:34.553Z,31.58
2022-12-24T02:30:07.049Z,33.80
2022-12-24T02:32:36.319Z,31.55
2022-12-24T02:35:08.746Z,32.67
2022-12-24T02:37:43.871Z,30.45
2022-12-24T02:40:25.293Z,35.15
2022-12-24T02:42:57.710Z,33.25
2022-12-24T02:45:36.145Z,35.53
2022-12-24T02:48:02.881Z,35.95
2022-12-24T02:50:29.439Z,33.30
2022-12-24T02:52:55.870Z,37.95
2022-12-24T02:55:36.832Z,35.40
2022-12-24T02:58:09.317Z,35.63
2022-12-24T03:01:16.196Z,35.72
2022-12-24T03:04:04.558Z,39.90
2022-12-24T03:06:48.572Z,37.80
2022-12-24T03:09:25.457Z,40.80
2022-12-24T03:12:05.382Z,37.30
2022-12-24T03:14:34.668Z,39.17
2022-12-24T03:17:03.420Z,35.65
2022-12-24T03:19:31.458Z,35.28
2022-12-24T03:22:00.734Z,33.00
2022-12-24T03:24:27.154Z,32.40
2022-12-24T03:26:53.603Z,31.88
2022-12-24T03:29:20.339Z,32.97
2022-12-24T03:31:49.390Z,32.92
2022-12-24T03:34:16.973Z,30.75
2022-12-24T03:36:43.557Z,33.30
2022-12-24T03:39:10.395Z,33.75
2022-12-24T03:41:37.812Z,34.65
2022-12-24T03:44:04.836Z,39.20
2022-12-24T03:46:31.171Z,33.53
2022-12-24T03:48:58.218Z,35.97
2022-12-24T03:51:25.564Z,38.60
2022-12-24T03:53:53.383Z,34.95
2022-12-24T03:56:20.507Z,32.67
2022-12-24T03:58:47.296Z,36.90
2022-12-24T04:01:13.996Z,36.45
2022-12-24T04:03:40.410Z,36.72
2022-12-24T04:06:09.765Z,32.72
2022-12-24T04:08:37.083Z,31.02
2022-12-24T04:11:10.143Z,32.60
2022-12-24T04:13:37.357Z,34.67
2022-12-24T04:16:07.186Z,32.83
2022-12-24T04:18:34.535Z,32.80
2022-12-24T04:21:00.879Z,36.00
2022-12-24T04:23:30.015Z,37.53
2022-12-24T04:25:56.460Z,35.97
2022-12-24T04:28:22.807Z,38.58
2022-12-24T04:30:49.147Z,38.08
2022-12-24T04:33:15.764Z,36.90
2022-12-24T04:35:42.457Z,36.83
2022-12-24T04:38:09.921Z,36.75
2022-12-24T04:40:36.460Z,34.95
2022-12-24T04:43:02.822Z,36.75
2022-12-24T04:45:29.207Z,36.97
2022-12-24T04:47:55.570Z,39.10
2022-12-24T04:50:22.157Z,38.97
2022-12-24T04:52:48.646Z,38.80
2022-12-24T04:55:15.076Z,37.08
2022-12-24T04:57:41.762Z,35.65
2022-12-24T05:00:08.868Z,41.63
2022-12-24T05:02:35.343Z,37.45
2022-12-24T05:05:01.999Z,36.50
2022-12-24T05:07:28.421Z,38.58
2022-12-24T05:09:54.857Z,33.90
2022-12-24T05:12:23.429Z,35.05
2022-12-24T05:14:49.816Z,36.80
2022-12-24T05:17:16.204Z,36.50
2022-12-24T05:19:42.619Z,36.35
2022-12-24T05:22:27.691Z,36.08
2022-12-24T05:25:12.395Z,35.10
2022-12-24T05:27:38.767Z,36.03
2022-12-24T05:30:05.835Z,36.85
2022-12-24T05:32:32.319Z,34.85
2022-12-24T05:34:58.666Z,36.97
2022-12-24T05:37:25.002Z,37.95
2022-12-24T05:39:51.430Z,37.95
2022-12-24T05:42:17.845Z,35.22
2022-12-24T05:44:44.259Z,37.95
2022-12-24T05:47:10.727Z,37.13
2022-12-24T05:49:37.127Z,35.38
2022-12-24T05:52:04.463Z,36.38
2022-12-24T05:54:30.864Z,36.40
2022-12-24T05:56:57.218Z,46.08
2022-12-24T05:59:23.682Z,37.13
2022-12-24T06:01:50.199Z,36.80
2022-12-24T06:04:16.701Z,33.72
2022-12-24T06:06:43.372Z,35.95
2022-12-24T06:09:09.752Z,35.35
2022-12-24T06:11:36.094Z,35.08
2022-12-24T06:14:02.524Z,34.53
2022-12-24T06:16:28.913Z,35.80
2022-12-24T06:18:55.693Z,37.00
2022-12-24T06:21:22.528Z,34.78
2022-12-24T06:23:48.963Z,33.95
2022-12-24T06:26:20.544Z,36.50
2022-12-24T06:28:49.755Z,36.10
2022-12-24T06:31:18.670Z,37.15
2022-12-24T06:33:45.195Z,37.92
2022-12-24T06:36:18.152Z,39.15
2022-12-24T06:38:46.431Z,39.05
2022-12-24T06:41:13.120Z,37.47
2022-12-24T06:43:40.159Z,36.60
2022-12-24T06:46:06.631Z,38.78
2022-12-24T06:48:32.990Z,36.65
2022-12-24T06:51:02.349Z,36.72
2022-12-24T06:53:28.802Z,36.55
2022-12-24T06:56:03.438Z,36.67
2022-12-24T06:58:30.291Z,36.60
2022-12-24T07:00:57.016Z,30.05
2022-12-24T07:03:23.447Z,32.83
2022-12-24T07:05:49.854Z,34.60
2022-12-24T07:08:16.204Z,32.03
2022-12-24T07:10:42.566Z,33.42
2022-12-24T07:13:08.904Z,34.33
2022-12-24T07:15:35.367Z,31.60
2022-12-24T07:18:01.688Z,30.15
2022-12-24T07:20:28.056Z,32.70
2022-12-24T07:22:54.388Z,33.88
2022-12-24T07:25:20.743Z,34.60
2022-12-24T07:27:47.121Z,32.00
2022-12-24T07:30:15.893Z,32.78
2022-12-24T07:32:44.627Z,34.42
2022-12-24T07:35:11.117Z,33.45
2022-12-24T07:37:38.020Z,29.67
2022-12-24T07:40:07.978Z,34.65
2022-12-24T07:42:34.335Z,33.83
2022-12-24T07:45:02.599Z,31.95
2022-12-24T07:47:32.081Z,32.28
2022-12-24T07:49:58.445Z,36.10
2022-12-24T07:52:24.763Z,33.83
2022-12-24T07:54:51.240Z,30.38
2022-12-24T07:57:17.599Z,36.63
2022-12-24T07:59:43.950Z,31.85
2022-12-24T08:02:17.738Z,29.75
2022-12-24T08:04:44.736Z,33.53
2022-12-24T08:07:11.148Z,30.90
2022-12-24T08:09:39.622Z,35.33
2022-12-24T08:12:06.298Z,32.53
2022-12-24T08:14:32.720Z,32.53
2022-12-24T08:16:59.170Z,32.42
2022-12-24T08:19:25.509Z,34.63
2022-12-24T08:21:51.875Z,32.55
2022-12-24T08:24:18.189Z,33.55
2022-12-24T08:26:44.604Z,33.78
2022-12-24T08:29:11.772Z,33.40
2022-12-24T08:31:38.267Z,35.17
2022-12-24T08:34:06.397Z,35.85
2022-12-24T08:36:34.083Z,34.92
2022-12-24T08:39:03.436Z,33.25
2022-12-24T08:41:31.062Z,33.40
2022-12-24T08:43:57.465Z,32.78
2022-12-24T08:46:23.866Z,36.17
2022-12-24T08:48:50.300Z,34.05
2022-12-24T08:51:16.833Z,35.92
2022-12-24T08:53:43.164Z,35.25
2022-12-24T08:56:10.659Z,35.00
2022-12-24T08:58:37.195Z,32.88
2022-12-24T09:01:11.658Z,36.72
2022-12-24T09:03:38.197Z,32.95
2022-12-24T09:06:05.631Z,32.53
2022-12-24T09:08:33.091Z,33.88
2022-12-24T09:11:07.445Z,33.58
2022-12-24T09:16:00.233Z,35.72
2022-12-24T09:18:26.961Z,38.85
2022-12-24T09:20:59.579Z,37.55
2022-12-24T09:23:26.001Z,38.08
2022-12-24T09:25:52.369Z,34.42
2022-12-24T09:28:18.891Z,35.92
2022-12-24T09:30:45.210Z,34.85
2022-12-24T09:33:12.003Z,34.85
2022-12-24T09:35:38.895Z,35.78
2022-12-24T09:38:05.266Z,34.83
2022-12-24T09:40:40.835Z,34.30
2022-12-24T09:43:16.968Z,33.33
2022-12-24T09:45:55.594Z,33.72
2022-12-24T09:48:28.207Z,35.70
2022-12-24T09:51:13.092Z,37.30
2022-12-24T09:53:49.833Z,35.67
2022-12-24T09:56:20.116Z,33.67
2022-12-24T09:58:55.502Z,33.15
2022-12-24T10:01:21.950Z,33.85
2022-12-24T10:03:48.594Z,37.35
2022-12-24T10:06:49.940Z,35.50
2022-12-24T10:09:43.122Z,35.65
2022-12-24T10:12:20.535Z,35.65
2022-12-24T10:15:14.213Z,34.03
2022-12-24T10:17:53.095Z,37.63
2022-12-24T10:20:54.077Z,33.58
2022-12-24T10:24:00.600Z,35.83
2022-12-24T10:26:35.504Z,35.30
2022-12-24T10:29:11.899Z,36.35
2022-12-24T10:31:50.041Z,32.60
2022-12-24T10:34:23.473Z,30.77
2022-12-24T10:36:49.891Z,29.07
2022-12-24T10:39:27.220Z,29.20
2022-12-24T10:41:57.593Z,26.95
2022-12-24T10:44:27.671Z,28.50
2022-12-24T10:46:54.545Z,25.58
2022-12-24T10:49:23.875Z,27.27
2022-12-24T10:51:55.187Z,27.88
2022-12-24T10:54:27.864Z,27.60
2022-12-24T10:56:59.969Z,25.15
2022-12-24T10:59:28.857Z,25.17
2022-12-24T11:01:57.563Z,21.90
2022-12-24T11:04:27.371Z,23.05
2022-12-24T11:07:01.390Z,21.35
2022-12-24T11:09:32.245Z,20.95
2022-12-24T11:12:05.378Z,20.60
2022-12-24T11:14:38.750Z,20.35
2022-12-24T11:17:05.829Z,19.25
2022-12-24T11:19:34.927Z,19.98
2022-12-24T11:22:04.584Z,18.15
2022-12-24T11:24:37.053Z,19.77
2022-12-24T11:27:23.297Z,18.45
2022-12-24T11:29:49.715Z,16.77
2022-12-24T11:32:41.518Z,16.65
2022-12-24T11:39:23.270Z,16.23
2022-12-24T11:42:02.631Z,15.65
2022-12-24T11:44:29.018Z,16.50
2022-12-24T11:50:41.916Z,19.35
2022-12-24T11:57:37.872Z,16.80
2022-12-24T12:00:30.561Z,17.13
2022-12-24T12:03:48.151Z,17.63
2022-12-24T12:06:31.339Z,17.92
2022-12-24T12:09:05.811Z,18.85
2022-12-24T12:11:35.427Z,19.02
2022-12-24T12:14:03.837Z,20.70
2022-12-24T12:17:05.377Z,20.40
2022-12-24T12:20:58.603Z,21.85
2022-12-24T12:23:32.865Z,22.20
2022-12-24T12:26:01.482Z,23.00
2022-12-24T12:28:42.977Z,23.90
2022-12-24T12:31:15.758Z,27.17
2022-12-24T12:34:11.260Z,29.15
2022-12-24T12:39:15.189Z,29.33
2022-12-24T12:42:02.347Z,28.42
2022-12-24T12:44:38.291Z,24.95
2022-12-24T12:47:07.688Z,27.20
2022-12-24T12:49:40.195Z,27.83
2022-12-24T12:52:09.557Z,27.38
2022-12-24T12:55:06.312Z,27.00
2022-12-24T12:57:36.764Z,25.67
2022-12-24T13:00:09.696Z,23.90
2022-12-24T13:03:00.956Z,24.55
2022-12-24T13:05:51.845Z,23.77
2022-12-24T13:08:34.460Z,22.13
2022-12-24T13:11:11.023Z,24.65
2022-12-24T13:14:15.057Z,24.40
2022-12-24T13:17:17.793Z,22.55
2022-12-24T13:20:05.422Z,25.02
2022-12-24T13:22:31.859Z,25.88
2022-12-24T13:24:58.396Z,26.45
2022-12-24T13:27:27.465Z,27.55
2022-12-24T13:29:57.076Z,23.02
2022-12-24T13:32:23.917Z,25.50
2022-12-24T13:34:52.351Z,24.88
2022-12-24T13:37:39.033Z,25.85
2022-12-24T13:40:08.634Z,23.73
2022-12-24T13:43:04.638Z,26.77
2022-12-24T13:45:35.371Z,27.88
2022-12-24T13:48:28.153Z,28.70
2022-12-24T13:50:58.008Z,28.25
2022-12-24T13:53:33.028Z,26.85
2022-12-24T13:56:05.690Z,25.50
2022-12-24T13:58:33.428Z,28.55
2022-12-24T14:01:10.844Z,27.38
2022-12-24T14:03:45.004Z,27.80
2022-12-24T14:06:22.800Z,28.88
2022-12-24T14:08:53.228Z,28.42
2022-12-24T14:11:21.925Z,28.77
2022-12-24T14:13:48.324Z,29.67
2022-12-24T14:16:14.665Z,29.25
2022-12-24T14:18:48.870Z,30.33
2022-12-24T14:21:23.504Z,29.92
2022-12-24T14:24:06.791Z,29.88
2022-12-24T14:26:36.495Z,30.05
2022-12-24T14:29:21.283Z,31.40
2022-12-24T14:31:53.171Z,30.45
2022-12-24T14:34:19.886Z,32.60
2022-12-24T14:36:49.047Z,33.25
2022-12-24T14:39:26.279Z,30.83
2022-12-24T14:42:30.049Z,32.58
2022-12-24T14:45:07.472Z,30.33
2022-12-24T14:47:44.740Z,28.35
2022-12-24T14:50:26.734Z,30.27
2022-12-24T14:53:19.600Z,30.45
2022-12-24T14:55:48.412Z,31.33
2022-12-24T14:58:25.405Z,32.00
2022-12-24T15:00:54.209Z,29.58
2022-12-24T15:03:24.149Z,30.85
2022-12-24T15:05:54.342Z,32.30
2022-12-24T15:08:36.728Z,31.88
2022-12-24T15:11:07.078Z,30.40
2022-12-24T15:13:40.274Z,30.83
2022-12-24T15:16:12.906Z,30.30
2022-12-24T15:18:48.081Z,29.30
2022-12-24T15:21:19.740Z,27.73
2022-12-24T15:23:49.450Z,26.88
2022-12-24T15:26:44.691Z,26.77
2022-12-24T15:29:21.344Z,24.05
2022-12-24T15:31:59.665Z,23.50
2022-12-24T15:34:40.772Z,26.15
2022-12-24T15:37:23.764Z,23.65
2022-12-24T15:39:55.707Z,25.92
2022-12-24T15:42:24.052Z,27.23
2022-12-24T15:45:04.509Z,27.15
2022-12-24T15:47:38.251Z,27.58
2022-12-24T15:50:13.908Z,25.38
2022-12-24T15:52:41.529Z,23.98
2022-12-24T15:55:26.407Z,28.42
2022-12-24T15:57:52.823Z,25.95
2022-12-24T16:00:24.835Z,26.67
2022-12-24T16:02:51.851Z,24.55
2022-12-24T16:05:21.499Z,27.75
2022-12-24T16:08:09.585Z,26.98
2022-12-24T16:10:42.984Z,25.48
2022-12-24T16:13:17.950Z,22.33
2022-12-24T16:16:00.238Z,19.50
2022-12-24T16:18:33.677Z,20.83
2022-12-24T16:21:00.329Z,21.80
2022-12-24T16:23:37.156Z,23.58
2022-12-24T16:26:03.752Z,20.75
2022-12-24T16:28:31.340Z,23.60
2022-12-24T16:30:57.942Z,28.08
2022-12-24T16:33:24.427Z,32.75
2022-12-24T16:35:50.895Z,26.95
2022-12-24T16:38:17.253Z,33.78
2022-12-24T16:40:43.990Z,34.03
2022-12-24T16:43:29.484Z,24.73
2022-12-24T16:46:02.258Z,26.00
2022-12-24T16:48:29.809Z,26.65
2022-12-24T16:50:56.669Z,20.15
2022-12-24T16:53:23.393Z,19.35
2022-12-24T16:55:51.448Z,19.00
2022-12-24T16:58:18.427Z,20.73
2022-12-24T17:00:45.118Z,19.52
2022-12-24T17:03:12.605Z,18.92
2022-12-24T17:05:43.865Z,19.38
2022-12-24T17:08:10.809Z,19.33
2022-12-24T17:10:37.259Z,20.50
2022-12-24T17:13:04.432Z,23.65
2022-12-24T17:15:31.089Z,23.80
2022-12-24T17:17:57.751Z,22.75
2022-12-24T17:20:24.761Z,23.20
2022-12-24T17:22:51.483Z,22.45
2022-12-24T17:25:18.158Z,21.05
2022-12-24T17:27:44.573Z,22.27
2022-12-24T17:30:11.268Z,20.77
2022-12-24T17:32:37.733Z,21.02
2022-12-24T17:35:04.572Z,18.95
2022-12-24T17:37:30.939Z,23.10
2022-12-24T17:39:57.360Z,20.85
2022-12-24T17:42:23.791Z,20.08
2022-12-24T17:44:52.029Z,20.88
2022-12-24T17:47:19.410Z,20.48
2022-12-24T17:49:45.764Z,21.38
2022-12-24T17:52:12.201Z,19.73
2022-12-24T17:54:38.578Z,20.25
2022-12-24T17:57:04.974Z,21.33
2022-12-24T17:59:31.655Z,19.10
2022-12-24T18:01:58.069Z,20.33
2022-12-24T18:04:24.499Z,22.70
2022-12-24T18:06:53.894Z,22.08
2022-12-24T18:09:25.910Z,22.73
2022-12-24T18:11:52.272Z,21.98
2022-12-24T18:14:18.606Z,22.15
2022-12-24T18:16:48.875Z,22.60
2022-12-24T18:19:15.327Z,22.95
2022-12-24T18:21:41.702Z,25.90
2022-12-24T18:24:10.439Z,26.20
2022-12-24T18:26:36.791Z,25.80
2022-12-24T18:29:08.474Z,24.85
2022-12-24T18:31:35.773Z,23.70
2022-12-24T18:34:04.889Z,26.90
2022-12-24T18:36:32.468Z,25.25
2022-12-24T18:38:59.419Z,26.15
2022-12-24T18:41:28.264Z,26.70
2022-12-24T18:43:55.977Z,27.33
2022-12-24T18:46:25.543Z,26.83
2022-12-24T18:48:54.252Z,25.85
2022-12-24T18:51:22.894Z,26.70
2022-12-24T18:53:50.070Z,24.98
2022-12-24T18:56:22.278Z,24.77
2022-12-24T18:58:52.078Z,25.35
2022-12-24T19:01:24.977Z,25.80
2022-12-24T19:03:51.936Z,25.15
2022-12-24T19:06:19.696Z,25.95
2022-12-24T19:09:02.228Z,27.73
2022-12-24T19:11:31.265Z,25.33
2022-12-24T19:13:58.521Z,35.75
2022-12-24T19:16:25.991Z,38.75
2022-12-24T19:18:52.641Z,47.80
2022-12-24T19:21:19.147Z,47.42
2022-12-24T19:23:45.820Z,52.65
2022-12-24T19:26:13.490Z,48.35
2022-12-24T19:28:40.388Z,51.40
2022-12-24T19:31:13.574Z,50.08
2022-12-24T19:33:43.507Z,45.38
2022-12-24T19:36:13.885Z,47.38
2022-12-24T19:38:41.175Z,49.42
2022-12-24T19:41:13.518Z,48.75
2022-12-24T19:43:41.953Z,46.28
2022-12-24T19:46:14.525Z,48.92
2022-12-24T19:48:42.324Z,47.83
2022-12-24T19:51:11.836Z,47.35
2022-12-24T19:53:39.556Z,47.97
2022-12-24T19:56:06.590Z,49.70
2022-12-24T19:58:32.981Z,47.15
2022-12-24T20:01:14.568Z,48.63
2022-12-24T20:03:42.270Z,47.03
2022-12-24T20:06:09.013Z,48.85
2022-12-24T20:08:37.148Z,48.63
2022-12-24T20:11:09.583Z,48.38
2022-12-24T20:13:38.258Z,46.45
2022-12-24T20:16:13.169Z,49.20
2022-12-24T20:18:40.329Z,49.70
2022-12-24T20:21:09.507Z,44.60
2022-12-24T20:23:41.777Z,47.63
2022-12-24T20:26:12.175Z,41.58
2022-12-24T20:28:39.466Z,42.55
2022-12-24T20:31:14.465Z,42.72
2022-12-24T20:33:42.464Z,45.80
2022-12-24T20:36:10.174Z,40.10
2022-12-24T20:38:38.378Z,42.00
2022-12-24T20:41:05.699Z,40.20
2022-12-24T20:43:37.169Z,41.40
2022-12-24T20:46:04.427Z,40.50
2022-12-24T20:48:31.433Z,43.17
2022-12-24T20:50:58.101Z,42.60
2022-12-24T20:53:25.167Z,43.40
2022-12-24T20:55:53.115Z,39.47
2022-12-24T20:58:20.584Z,45.70
2022-12-24T21:00:47.989Z,48.78
2022-12-24T21:03:15.847Z,47.90
2022-12-24T21:05:43.228Z,45.88
2022-12-24T21:08:10.848Z,45.53
2022-12-24T21:10:38.104Z,45.25
2022-12-24T21:13:04.919Z,43.05
2022-12-24T21:15:34.977Z,41.72
2022-12-24T21:18:09.892Z,40.53
2022-12-24T21:20:37.065Z,40.65
2022-12-24T21:23:03.619Z,43.28
2022-12-24T21:25:30.057Z,41.75
2022-12-24T21:27:56.542Z,43.47
2022-12-24T21:30:23.513Z,41.90
2022-12-24T21:32:50.550Z,41.20
2022-12-24T21:35:17.226Z,43.47
2022-12-24T21:37:43.693Z,42.53
2022-12-24T21:40:10.772Z,41.67
2022-12-24T21:42:37.648Z,43.17
2022-12-24T21:45:05.052Z,41.90
2022-12-24T21:47:31.402Z,42.70
2022-12-24T21:50:16.391Z,45.00
2022-12-24T21:52:42.783Z,45.58
2022-12-24T21:55:09.212Z,43.33
2022-12-24T21:57:53.828Z,45.55
2022-12-24T22:02:53.868Z,35.95
2022-12-24T22:05:21.376Z,50.72
2022-12-24T22:08:07.215Z,46.67
2022-12-24T22:10:51.989Z,48.40
2022-12-24T22:13:21.493Z,40.72
2022-12-24T22:15:49.883Z,42.50
2022-12-24T22:18:18.288Z,42.80
2022-12-24T22:20:46.392Z,43.78
2022-12-24T22:23:14.483Z,43.30
2022-12-24T22:25:41.928Z,40.60
2022-12-24T22:28:08.330Z,42.20
2022-12-24T22:30:39.751Z,40.63
2022-12-24T22:33:07.366Z,37.40
2022-12-24T22:35:36.684Z,41.17
2022-12-24T22:38:03.262Z,40.28
2022-12-24T22:40:29.810Z,39.83
2022-12-24T22:42:56.234Z,37.90
2022-12-24T22:45:23.056Z,35.17
2022-12-24T22:47:49.590Z,37.97
2022-12-24T22:50:16.978Z,37.90
2022-12-24T22:52:43.373Z,36.90
2022-12-24T22:55:10.042Z,35.22
2022-12-24T22:57:36.443Z,39.42
2022-12-24T23:00:13.175Z,39.08
2022-12-24T23:02:39.683Z,40.45
2022-12-24T23:05:06.454Z,43.00
2022-12-24T23:07:32.841Z,38.33
2022-12-24T23:09:59.704Z,38.65
2022-12-24T23:12:44.787Z,37.20
2022-12-24T23:15:11.649Z,36.55
2022-12-24T23:17:38.057Z,37.97
2022-12-24T23:20:04.900Z,40.25
2022-12-24T23:22:31.355Z,36.53
2022-12-24T23:24:57.850Z,39.50
2022-12-24T23:27:24.556Z,40.83
2022-12-24T23:29:50.953Z,42.95
2022-12-24T23:32:17.291Z,42.05
2022-12-24T23:34:43.742Z,39.30
2022-12-24T23:37:10.181Z,38.90
2022-12-24T23:39:36.522Z,36.85
2022-12-24T23:42:02.948Z,40.53
2022-12-24T23:44:32.497Z,37.35
2022-12-24T23:46:59.409Z,34.70
2022-12-24T23:49:26.682Z,36.70
2022-12-24T23:51:53.084Z,37.75
2022-12-24T23:54:19.471Z,35.08
2022-12-24T23:56:45.824Z,31.85
2022-12-24T23:59:12.172Z,36.67
